Tropical Cyclones
[Index]
Main Index Home Page Stock Weather Photos Extreme Storms Discussion Storm News and Storm Chasing Reports Tropical Cyclones / Hurricanes / Typhoons Weather Data and Links Wild Fires / Bushfires Weather Observation Techniques Weather Picture Catalogue Tornado Pictures and Reports Stock Video Footage and DVDs for sale
Season 1984-1985 Tropical Cyclone FREDA Track Map
Season 1984-1985 Summaries: [BoM-AU] [JTWC-AU] [JTWC-SIO] [JTWC-SPAC] [JTWC-SH]
<<- Previous TC | JTWC 1984-1985 Season | Next TC ->>

click for intensity scale information  Lat/long Grid: Show Hide

 Date Labels: Show Hide

Joint Typhoon Warning Centre Cyclone Data

Name: FREDA

26 Jan 1985 00:00 UTC to 01 Feb 1985 00:00 UTC

    date/time    lat    long     hPa   cat  kts
1985-01-26 00   12.6    68.3                  25          
1985-01-26 06   13.3    67.7                  30          
1985-01-26 12   13.9    67.3                  35          
1985-01-26 18   14.4    67.0                  35          
1985-01-27 00   14.9    66.7            1     40          
1985-01-27 06   15.4    66.5            1     40          
1985-01-27 12   15.8    66.3            1     45          
1985-01-27 18   16.2    66.3            1     50          
1985-01-28 00   16.6    66.2            2     55          
1985-01-28 06   16.9    66.2            2     60          
1985-01-28 12   17.3    66.1            2     65          
1985-01-28 18   17.7    66.0            2     70          
1985-01-29 00   18.2    65.7            2     70          
1985-01-29 06   18.6    65.2            2     70          
1985-01-29 12   19.0    64.6            2     70          
1985-01-29 18   19.3    64.1            2     70          
1985-01-30 00   19.7    63.6            2     65          
1985-01-30 06   20.0    63.0            2     60          
1985-01-30 12   20.4    62.3            2     55          
1985-01-30 18   21.0    61.4            1     50          
1985-01-31 00   22.2    60.6            1     45          
1985-01-31 06   23.7    60.4            1     40          
1985-01-31 12   25.3    60.7                  35          
1985-01-31 18   26.9    61.3                  30          
1985-02-01 00   28.6    62.3                  30          
Winds are 1-min average.

Tropical cyclone tracks developed by Michael Bath using data from the Joint Typhoon Warning Centre Best Tracks and Google Maps.


[Australian Severe Weather index] [Copyright Notice] [Email Contacts] [Search This Site] [Privacy Policy]
Document: tropical_cyclone_freda.htm Updated: 18 September 2016